sensor_id;sensor_type;location;lat;lon;timestamp;pressure;altitude;pressure_sealevel;temperature;humidity
69257;BME280;56376;53.356;-1.748;2023-04-10T00:02:17;99079.53;;;9.85;100.00
69257;BME280;56376;53.356;-1.748;2023-04-10T00:04:42;99077.81;;;9.84;100.00
69257;BME280;56376;53.356;-1.748;2023-04-10T00:07:08;99085.72;;;9.83;100.00
69257;BME280;56376;53.356;-1.748;2023-04-10T00:09:33;99064.94;;;9.80;100.00
69257;BME280;56376;53.356;-1.748;2023-04-10T00:11:58;99067.63;;;9.78;100.00
69257;BME280;56376;53.356;-1.748;2023-04-10T00:14:25;99052.97;;;9.75;100.00
69257;BME280;56376;53.356;-1.748;2023-04-10T00:16:50;99057.38;;;9.73;100.00
69257;BME280;56376;53.356;-1.748;2023-04-10T00:19:16;99050.44;;;9.72;100.00
69257;BME280;56376;53.356;-1.748;2023-04-10T00:21:42;99036.56;;;9.72;100.00
69257;BME280;56376;53.356;-1.748;2023-04-10T00:24:08;99033.16;;;9.70;100.00
69257;BME280;56376;53.356;-1.748;2023-04-10T00:26:34;99030.56;;;9.70;100.00
69257;BME280;56376;53.356;-1.748;2023-04-10T00:29:01;99039.31;;;9.69;100.00
69257;BME280;56376;53.356;-1.748;2023-04-10T00:31:27;99031.53;;;9.67;100.00
69257;BME280;56376;53.356;-1.748;2023-04-10T00:33:52;99017.72;;;9.65;100.00
69257;BME280;56376;53.356;-1.748;2023-04-10T00:36:18;99013.34;;;9.66;100.00
69257;BME280;56376;53.356;-1.748;2023-04-10T00:38:43;99017.78;;;9.64;100.00
69257;BME280;56376;53.356;-1.748;2023-04-10T00:41:09;99003.81;;;9.65;100.00
69257;BME280;56376;53.356;-1.748;2023-04-10T00:43:35;99007.34;;;9.64;100.00
69257;BME280;56376;53.356;-1.748;2023-04-10T00:46:00;99008.28;;;9.63;100.00
69257;BME280;56376;53.356;-1.748;2023-04-10T00:48:26;99001.34;;;9.62;100.00
69257;BME280;56376;53.356;-1.748;2023-04-10T00:50:51;99009.03;;;9.65;100.00
69257;BME280;56376;53.356;-1.748;2023-04-10T00:53:17;99010.75;;;9.66;100.00
69257;BME280;56376;53.356;-1.748;2023-04-10T00:55:43;98993.59;;;9.60;100.00
69257;BME280;56376;53.356;-1.748;2023-04-10T00:58:09;98994.50;;;9.59;100.00
69257;BME280;56376;53.356;-1.748;2023-04-10T01:00:39;98995.56;;;9.55;100.00
69257;BME280;56376;53.356;-1.748;2023-04-10T01:03:04;98982.56;;;9.53;100.00
69257;BME280;56376;53.356;-1.748;2023-04-10T01:05:34;98980.94;;;9.51;100.00
69257;BME280;56376;53.356;-1.748;2023-04-10T01:08:19;98975.06;;;9.46;100.00
69257;BME280;56376;53.356;-1.748;2023-04-10T01:11:04;98962.16;;;9.43;100.00
69257;BME280;56376;53.356;-1.748;2023-04-10T01:13:35;98962.19;;;9.41;100.00
69257;BME280;56376;53.356;-1.748;2023-04-10T01:19:14;98952.81;;;9.37;100.00
69257;BME280;56376;53.356;-1.748;2023-04-10T01:21:46;98946.75;;;9.37;100.00
69257;BME280;56376;53.356;-1.748;2023-04-10T01:27:27;98937.38;;;9.32;100.00
69257;BME280;56376;53.356;-1.748;2023-04-10T01:30:00;98929.66;;;9.29;100.00
69257;BME280;56376;53.356;-1.748;2023-04-10T01:32:28;98928.75;;;9.30;100.00
69257;BME280;56376;53.356;-1.748;2023-04-10T01:34:55;98915.88;;;9.27;100.00
69257;BME280;56376;53.356;-1.748;2023-04-10T01:37:30;98908.88;;;9.28;100.00
69257;BME280;56376;53.356;-1.748;2023-04-10T01:40:04;98909.78;;;9.27;100.00
69257;BME280;56376;53.356;-1.748;2023-04-10T01:42:35;98901.97;;;9.27;100.00
69257;BME280;56376;53.356;-1.748;2023-04-10T01:45:04;98896.75;;;9.27;100.00
69257;BME280;56376;53.356;-1.748;2023-04-10T01:47:32;98895.84;;;9.28;100.00
69257;BME280;56376;53.356;-1.748;2023-04-10T01:49:58;98897.81;;;9.23;100.00
69257;BME280;56376;53.356;-1.748;2023-04-10T01:52:26;98899.47;;;9.24;100.00
69257;BME280;56376;53.356;-1.748;2023-04-10T01:54:53;98898.66;;;9.23;100.00
69257;BME280;56376;53.356;-1.748;2023-04-10T01:57:19;98895.19;;;9.23;100.00
69257;BME280;56376;53.356;-1.748;2023-04-10T01:59:45;98893.44;;;9.23;100.00
69257;BME280;56376;53.356;-1.748;2023-04-10T02:02:11;98897.84;;;9.21;100.00
69257;BME280;56376;53.356;-1.748;2023-04-10T02:04:36;98901.25;;;9.23;100.00
69257;BME280;56376;53.356;-1.748;2023-04-10T02:07:09;98890.81;;;9.23;100.00
69257;BME280;56376;53.356;-1.748;2023-04-10T02:10:05;98879.63;;;9.21;100.00
69257;BME280;56376;53.356;-1.748;2023-04-10T02:12:52;98884.81;;;9.21;100.00
69257;BME280;56376;53.356;-1.748;2023-04-10T02:15:21;98888.53;;;9.16;100.00
69257;BME280;56376;53.356;-1.748;2023-04-10T02:17:48;98891.97;;;9.16;100.00
69257;BME280;56376;53.356;-1.748;2023-04-10T02:20:15;98883.31;;;9.16;100.00
69257;BME280;56376;53.356;-1.748;2023-04-10T02:22:43;98882.34;;;9.18;100.00
69257;BME280;56376;53.356;-1.748;2023-04-10T02:25:09;98877.13;;;9.18;100.00
69257;BME280;56376;53.356;-1.748;2023-04-10T02:27:36;98878.91;;;9.18;100.00
69257;BME280;56376;53.356;-1.748;2023-04-10T02:30:02;98863.31;;;9.16;100.00
69257;BME280;56376;53.356;-1.748;2023-04-10T02:32:28;98850.34;;;9.15;100.00
69257;BME280;56376;53.356;-1.748;2023-04-10T02:34:54;98839.91;;;9.15;100.00
69257;BME280;56376;53.356;-1.748;2023-04-10T02:37:20;98830.47;;;9.12;100.00
69257;BME280;56376;53.356;-1.748;2023-04-10T02:39:46;98826.00;;;9.16;100.00
69257;BME280;56376;53.356;-1.748;2023-04-10T02:42:11;98818.25;;;9.14;100.00
69257;BME280;56376;53.356;-1.748;2023-04-10T02:44:37;98794.88;;;9.13;100.00
69257;BME280;56376;53.356;-1.748;2023-04-10T02:47:04;98800.84;;;9.15;100.00
69257;BME280;56376;53.356;-1.748;2023-04-10T02:49:30;98801.72;;;9.15;100.00
69257;BME280;56376;53.356;-1.748;2023-04-10T02:51:56;98778.19;;;9.17;100.00
69257;BME280;56376;53.356;-1.748;2023-04-10T02:54:21;98784.31;;;9.16;100.00
69257;BME280;56376;53.356;-1.748;2023-04-10T02:56:47;98767.88;;;9.14;100.00
69257;BME280;56376;53.356;-1.748;2023-04-10T02:59:12;98765.28;;;9.14;100.00
69257;BME280;56376;53.356;-1.748;2023-04-10T03:01:37;98760.06;;;9.14;100.00
69257;BME280;56376;53.356;-1.748;2023-04-10T03:04:04;98755.78;;;9.13;100.00
69257;BME280;56376;53.356;-1.748;2023-04-10T03:06:29;98754.16;;;9.10;100.00
69257;BME280;56376;53.356;-1.748;2023-04-10T03:08:55;98749.72;;;9.12;100.00
69257;BME280;56376;53.356;-1.748;2023-04-10T03:11:21;98753.25;;;9.11;100.00
69257;BME280;56376;53.356;-1.748;2023-04-10T03:13:46;98761.00;;;9.13;100.00
69257;BME280;56376;53.356;-1.748;2023-04-10T03:16:13;98755.72;;;9.14;100.00
69257;BME280;56376;53.356;-1.748;2023-04-10T03:18:38;98746.91;;;9.17;100.00
69257;BME280;56376;53.356;-1.748;2023-04-10T03:21:04;98747.78;;;9.17;100.00
69257;BME280;56376;53.356;-1.748;2023-04-10T03:23:29;98743.53;;;9.15;100.00
69257;BME280;56376;53.356;-1.748;2023-04-10T03:25:55;98743.53;;;9.15;100.00
69257;BME280;56376;53.356;-1.748;2023-04-10T03:28:21;98740.03;;;9.16;100.00
69257;BME280;56376;53.356;-1.748;2023-04-10T03:30:47;98744.31;;;9.17;100.00
69257;BME280;56376;53.356;-1.748;2023-04-10T03:33:13;98739.03;;;9.18;100.00
69257;BME280;56376;53.356;-1.748;2023-04-10T03:35:38;98739.09;;;9.17;100.00
69257;BME280;56376;53.356;-1.748;2023-04-10T03:38:03;98746.84;;;9.18;100.00
69257;BME280;56376;53.356;-1.748;2023-04-10T03:40:29;98736.56;;;9.15;100.00
69257;BME280;56376;53.356;-1.748;2023-04-10T03:42:55;98734.75;;;9.17;100.00
69257;BME280;56376;53.356;-1.748;2023-04-10T03:45:20;98725.22;;;9.16;100.00
69257;BME280;56376;53.356;-1.748;2023-04-10T03:47:46;98729.59;;;9.16;100.00
69257;BME280;56376;53.356;-1.748;2023-04-10T03:50:11;98719.97;;;9.18;100.00
69257;BME280;56376;53.356;-1.748;2023-04-10T03:52:37;98719.97;;;9.18;100.00
69257;BME280;56376;53.356;-1.748;2023-04-10T03:55:02;98711.31;;;9.17;100.00
69257;BME280;56376;53.356;-1.748;2023-04-10T03:57:28;98712.97;;;9.18;100.00
69257;BME280;56376;53.356;-1.748;2023-04-10T03:59:53;98715.53;;;9.20;100.00
69257;BME280;56376;53.356;-1.748;2023-04-10T04:02:19;98707.72;;;9.20;100.00
69257;BME280;56376;53.356;-1.748;2023-04-10T04:04:44;98705.13;;;9.20;100.00
69257;BME280;56376;53.356;-1.748;2023-04-10T04:07:09;98698.03;;;9.22;100.00
69257;BME280;56376;53.356;-1.748;2023-04-10T04:09:36;98703.25;;;9.22;100.00
69257;BME280;56376;53.356;-1.748;2023-04-10T04:12:02;98704.97;;;9.23;100.00
69257;BME280;56376;53.356;-1.748;2023-04-10T04:14:27;98709.41;;;9.21;100.00
69257;BME280;56376;53.356;-1.748;2023-04-10T04:16:53;98696.22;;;9.24;100.00
69257;BME280;56376;53.356;-1.748;2023-04-10T04:19:18;98691.00;;;9.24;100.00
69257;BME280;56376;53.356;-1.748;2023-04-10T04:21:43;98697.84;;;9.26;100.00
69257;BME280;56376;53.356;-1.748;2023-04-10T04:24:09;98689.25;;;9.24;100.00
69257;BME280;56376;53.356;-1.748;2023-04-10T04:26:35;98705.66;;;9.26;100.00
69257;BME280;56376;53.356;-1.748;2023-04-10T04:29:00;98688.25;;;9.27;100.00
69257;BME280;56376;53.356;-1.748;2023-04-10T04:31:26;98692.72;;;9.25;100.00
69257;BME280;56376;53.356;-1.748;2023-04-10T04:33:59;98678.81;;;9.24;100.00
69257;BME280;56376;53.356;-1.748;2023-04-10T04:36:25;98674.50;;;9.25;100.00
69257;BME280;56376;53.356;-1.748;2023-04-10T04:38:52;98669.19;;;9.26;100.00
69257;BME280;56376;53.356;-1.748;2023-04-10T04:41:17;98667.50;;;9.25;100.00
69257;BME280;56376;53.356;-1.748;2023-04-10T04:43:43;98657.88;;;9.27;100.00
69257;BME280;56376;53.356;-1.748;2023-04-10T04:46:09;98663.09;;;9.27;100.00
69257;BME280;56376;53.356;-1.748;2023-04-10T04:48:34;98654.38;;;9.27;100.00
69257;BME280;56376;53.356;-1.748;2023-04-10T04:51:00;98647.34;;;9.29;100.00
69257;BME280;56376;53.356;-1.748;2023-04-10T04:53:26;98637.78;;;9.29;100.00
69257;BME280;56376;53.356;-1.748;2023-04-10T04:55:51;98652.56;;;9.29;100.00
69257;BME280;56376;53.356;-1.748;2023-04-10T04:58:16;98660.38;;;9.29;100.00
69257;BME280;56376;53.356;-1.748;2023-04-10T05:00:42;98649.06;;;9.30;100.00
69257;BME280;56376;53.356;-1.748;2023-04-10T05:03:07;98653.34;;;9.31;100.00
69257;BME280;56376;53.356;-1.748;2023-04-10T05:05:32;98664.69;;;9.30;100.00
69257;BME280;56376;53.356;-1.748;2023-04-10T05:07:58;98661.16;;;9.31;100.00
69257;BME280;56376;53.356;-1.748;2023-04-10T05:10:23;98649.13;;;9.28;100.00
69257;BME280;56376;53.356;-1.748;2023-04-10T05:12:49;98642.94;;;9.31;100.00
69257;BME280;56376;53.356;-1.748;2023-04-10T05:15:14;98638.56;;;9.31;100.00
69257;BME280;56376;53.356;-1.748;2023-04-10T05:17:40;98641.16;;;9.31;100.00
69257;BME280;56376;53.356;-1.748;2023-04-10T05:20:05;98648.91;;;9.33;100.00
69257;BME280;56376;53.356;-1.748;2023-04-10T05:22:31;98637.56;;;9.34;100.00
69257;BME280;56376;53.356;-1.748;2023-04-10T05:24:56;98638.50;;;9.33;100.00
69257;BME280;56376;53.356;-1.748;2023-04-10T05:27:22;98623.75;;;9.32;100.00
69257;BME280;56376;53.356;-1.748;2023-04-10T05:29:48;98620.41;;;9.30;100.00
69257;BME280;56376;53.356;-1.748;2023-04-10T05:32:13;98620.41;;;9.30;100.00
69257;BME280;56376;53.356;-1.748;2023-04-10T05:34:39;98620.41;;;9.30;100.00
69257;BME280;56376;53.356;-1.748;2023-04-10T05:37:04;98621.25;;;9.30;100.00
69257;BME280;56376;53.356;-1.748;2023-04-10T05:39:30;98615.94;;;9.32;100.00
69257;BME280;56376;53.356;-1.748;2023-04-10T05:41:55;98610.81;;;9.30;100.00
69257;BME280;56376;53.356;-1.748;2023-04-10T05:44:22;98610.72;;;9.32;100.00
69257;BME280;56376;53.356;-1.748;2023-04-10T05:46:47;98609.81;;;9.33;100.00
69257;BME280;56376;53.356;-1.748;2023-04-10T05:49:13;98615.88;;;9.34;100.00
69257;BME280;56376;53.356;-1.748;2023-04-10T05:51:38;98608.13;;;9.32;100.00
69257;BME280;56376;53.356;-1.748;2023-04-10T05:54:04;98612.44;;;9.33;100.00
69257;BME280;56376;53.356;-1.748;2023-04-10T05:56:29;98613.28;;;9.34;100.00
69257;BME280;56376;53.356;-1.748;2023-04-10T05:58:54;98610.66;;;9.34;100.00
69257;BME280;56376;53.356;-1.748;2023-04-10T06:01:20;98611.50;;;9.34;100.00
69257;BME280;56376;53.356;-1.748;2023-04-10T06:03:45;98596.03;;;9.31;100.00
69257;BME280;56376;53.356;-1.748;2023-04-10T06:06:11;98600.09;;;9.37;100.00
69257;BME280;56376;53.356;-1.748;2023-04-10T06:08:37;98583.56;;;9.38;100.00
69257;BME280;56376;53.356;-1.748;2023-04-10T06:11:02;98587.00;;;9.38;100.00
69257;BME280;56376;53.356;-1.748;2023-04-10T06:13:27;98590.44;;;9.39;100.00
69257;BME280;56376;53.356;-1.748;2023-04-10T06:15:53;98586.91;;;9.40;100.00
69257;BME280;56376;53.356;-1.748;2023-04-10T06:18:18;98573.03;;;9.39;100.00
69257;BME280;56376;53.356;-1.748;2023-04-10T06:20:44;98575.59;;;9.41;100.00
69257;BME280;56376;53.356;-1.748;2023-04-10T06:23:09;98572.91;;;9.42;100.00
69257;BME280;56376;53.356;-1.748;2023-04-10T06:25:36;98572.00;;;9.43;100.00
69257;BME280;56376;53.356;-1.748;2023-04-10T06:28:01;98560.63;;;9.44;100.00
69257;BME280;56376;53.356;-1.748;2023-04-10T06:30:26;98561.41;;;9.46;100.00
69257;BME280;56376;53.356;-1.748;2023-04-10T06:32:52;98556.97;;;9.48;100.00
69257;BME280;56376;53.356;-1.748;2023-04-10T06:35:18;98555.22;;;9.49;100.00
69257;BME280;56376;53.356;-1.748;2023-04-10T06:37:43;98561.16;;;9.52;100.00
69257;BME280;56376;53.356;-1.748;2023-04-10T06:40:10;98556.78;;;9.53;100.00
69257;BME280;56376;53.356;-1.748;2023-04-10T06:42:36;98555.00;;;9.53;100.00
69257;BME280;56376;53.356;-1.748;2023-04-10T06:45:02;98550.56;;;9.56;100.00
69257;BME280;56376;53.356;-1.748;2023-04-10T06:47:28;98534.97;;;9.54;100.00
69257;BME280;56376;53.356;-1.748;2023-04-10T06:49:54;98546.03;;;9.59;100.00
69257;BME280;56376;53.356;-1.748;2023-04-10T06:52:19;98542.44;;;9.62;100.00
69257;BME280;56376;53.356;-1.748;2023-04-10T06:54:45;98538.84;;;9.64;100.00
69257;BME280;56376;53.356;-1.748;2023-04-10T06:57:10;98542.28;;;9.65;100.00
69257;BME280;56376;53.356;-1.748;2023-04-10T06:59:36;98538.78;;;9.66;100.00
69257;BME280;56376;53.356;-1.748;2023-04-10T07:02:04;98539.56;;;9.68;100.00
69257;BME280;56376;53.356;-1.748;2023-04-10T07:04:30;98518.69;;;9.68;100.00
69257;BME280;56376;53.356;-1.748;2023-04-10T07:06:56;98526.41;;;9.69;100.00
69257;BME280;56376;53.356;-1.748;2023-04-10T07:09:23;98517.59;;;9.72;100.00
69257;BME280;56376;53.356;-1.748;2023-04-10T07:11:49;98516.75;;;9.71;100.00
69257;BME280;56376;53.356;-1.748;2023-04-10T07:14:14;98519.31;;;9.73;100.00
69257;BME280;56376;53.356;-1.748;2023-04-10T07:16:40;98520.06;;;9.75;100.00
69257;BME280;56376;53.356;-1.748;2023-04-10T07:19:05;98529.59;;;9.76;100.00
69257;BME280;56376;53.356;-1.748;2023-04-10T07:21:30;98533.88;;;9.77;100.00
69257;BME280;56376;53.356;-1.748;2023-04-10T07:23:57;98536.47;;;9.77;100.00
69257;BME280;56376;53.356;-1.748;2023-04-10T07:26:22;98531.25;;;9.77;100.00
69257;BME280;56376;53.356;-1.748;2023-04-10T07:28:48;98527.75;;;9.78;100.00
69257;BME280;56376;53.356;-1.748;2023-04-10T07:31:13;98529.38;;;9.81;100.00
69257;BME280;56376;53.356;-1.748;2023-04-10T07:33:38;98532.81;;;9.81;100.00
69257;BME280;56376;53.356;-1.748;2023-04-10T07:36:04;98523.16;;;9.83;100.00
69257;BME280;56376;53.356;-1.748;2023-04-10T07:38:33;98500.53;;;9.84;100.00
69257;BME280;56376;53.356;-1.748;2023-04-10T07:40:58;98500.53;;;9.84;100.00
69257;BME280;56376;53.356;-1.748;2023-04-10T07:43:24;98492.47;;;9.88;100.00
69257;BME280;56376;53.356;-1.748;2023-04-10T07:45:50;98499.38;;;9.89;100.00
69257;BME280;56376;53.356;-1.748;2023-04-10T07:48:15;98501.75;;;9.94;100.00
69257;BME280;56376;53.356;-1.748;2023-04-10T07:50:41;98492.09;;;9.96;100.00
69257;BME280;56376;53.356;-1.748;2023-04-10T07:53:06;98485.78;;;10.00;100.00
69257;BME280;56376;53.356;-1.748;2023-04-10T07:55:37;98492.69;;;10.01;100.00
69257;BME280;56376;53.356;-1.748;2023-04-10T07:58:02;98491.69;;;10.04;100.00
69257;BME280;56376;53.356;-1.748;2023-04-10T08:00:27;98481.16;;;10.05;100.00
69257;BME280;56376;53.356;-1.748;2023-04-10T08:02:53;98481.88;;;10.09;100.00
69257;BME280;56376;53.356;-1.748;2023-04-10T08:05:18;98461.84;;;10.09;100.00
69257;BME280;56376;53.356;-1.748;2023-04-10T08:07:44;98456.22;;;10.17;100.00
69257;BME280;56376;53.356;-1.748;2023-04-10T08:10:10;98457.75;;;10.21;100.00
69257;BME280;56376;53.356;-1.748;2023-04-10T08:12:35;98453.97;;;10.27;100.00
69257;BME280;56376;53.356;-1.748;2023-04-10T08:15:00;98458.84;;;10.34;100.00
69257;BME280;56376;53.356;-1.748;2023-04-10T08:17:26;98463.81;;;10.39;100.00
69257;BME280;56376;53.356;-1.748;2023-04-10T08:19:51;98463.59;;;10.44;100.00
69257;BME280;56376;53.356;-1.748;2023-04-10T08:22:17;98462.47;;;10.48;100.00
69257;BME280;56376;53.356;-1.748;2023-04-10T08:24:42;98459.09;;;10.46;100.00
69257;BME280;56376;53.356;-1.748;2023-04-10T08:27:08;98452.19;;;10.45;100.00
69257;BME280;56376;53.356;-1.748;2023-04-10T08:29:33;98445.22;;;10.45;100.00
69257;BME280;56376;53.356;-1.748;2023-04-10T08:31:58;98439.75;;;10.50;100.00
69257;BME280;56376;53.356;-1.748;2023-04-10T08:34:25;98438.91;;;10.49;100.00
69257;BME280;56376;53.356;-1.748;2023-04-10T08:36:50;98436.06;;;10.54;100.00
69257;BME280;56376;53.356;-1.748;2023-04-10T08:39:16;98431.44;;;10.59;100.00
69257;BME280;56376;53.356;-1.748;2023-04-10T08:41:42;98429.25;;;10.67;100.00
69257;BME280;56376;53.356;-1.748;2023-04-10T08:44:07;98423.53;;;10.76;100.00
69257;BME280;56376;53.356;-1.748;2023-04-10T08:46:35;98420.66;;;10.81;100.00
69257;BME280;56376;53.356;-1.748;2023-04-10T08:49:02;98421.34;;;10.85;100.00
69257;BME280;56376;53.356;-1.748;2023-04-10T08:51:35;98409.94;;;10.86;100.00
69257;BME280;56376;53.356;-1.748;2023-04-10T08:54:17;98413.25;;;10.89;100.00
69257;BME280;56376;53.356;-1.748;2023-04-10T08:56:49;98394.84;;;10.91;100.00
69257;BME280;56376;53.356;-1.748;2023-04-10T08:59:18;98397.22;;;10.95;100.00
69257;BME280;56376;53.356;-1.748;2023-04-10T09:01:44;98397.72;;;11.02;100.00
69257;BME280;56376;53.356;-1.748;2023-04-10T09:04:11;98389.53;;;11.08;100.00
69257;BME280;56376;53.356;-1.748;2023-04-10T09:06:36;98381.50;;;11.11;100.00
69257;BME280;56376;53.356;-1.748;2023-04-10T09:09:02;98371.81;;;11.13;100.00
69257;BME280;56376;53.356;-1.748;2023-04-10T09:14:21;98356.56;;;11.21;100.00
69257;BME280;56376;53.356;-1.748;2023-04-10T09:16:47;98351.91;;;11.26;100.00
69257;BME280;56376;53.356;-1.748;2023-04-10T09:19:12;98338.03;;;11.40;100.00
69257;BME280;56376;53.356;-1.748;2023-04-10T09:21:37;98350.38;;;11.53;100.00
69257;BME280;56376;53.356;-1.748;2023-04-10T09:24:03;98348.16;;;11.61;100.00
69257;BME280;56376;53.356;-1.748;2023-04-10T09:26:30;98346.13;;;11.80;100.00
69257;BME280;56376;53.356;-1.748;2023-04-10T09:29:01;98343.91;;;12.03;100.00
69257;BME280;56376;53.356;-1.748;2023-04-10T09:31:32;98323.78;;;12.32;100.00
69257;BME280;56376;53.356;-1.748;2023-04-10T09:34:16;98321.00;;;12.62;100.00
69257;BME280;56376;53.356;-1.748;2023-04-10T09:36:52;98321.72;;;12.78;100.00
69257;BME280;56376;53.356;-1.748;2023-04-10T09:39:19;98307.66;;;12.80;100.00
69257;BME280;56376;53.356;-1.748;2023-04-10T09:41:53;98312.28;;;12.76;100.00
69257;BME280;56376;53.356;-1.748;2023-04-10T09:44:33;98303.34;;;12.66;100.00
69257;BME280;56376;53.356;-1.748;2023-04-10T09:47:17;98289.22;;;12.54;100.00
69257;BME280;56376;53.356;-1.748;2023-04-10T09:49:47;98276.28;;;12.38;100.00
69257;BME280;56376;53.356;-1.748;2023-04-10T09:52:27;98265.25;;;12.33;100.00
69257;BME280;56376;53.356;-1.748;2023-04-10T09:54:54;98267.09;;;12.45;100.00
69257;BME280;56376;53.356;-1.748;2023-04-10T09:57:21;98254.25;;;12.55;100.00
69257;BME280;56376;53.356;-1.748;2023-04-10T09:59:48;98254.38;;;12.66;100.00
69257;BME280;56376;53.356;-1.748;2023-04-10T10:02:20;98253.25;;;12.70;100.00
69257;BME280;56376;53.356;-1.748;2023-04-10T10:04:46;98247.28;;;12.68;100.00
69257;BME280;56376;53.356;-1.748;2023-04-10T10:07:17;98238.38;;;12.71;100.00
69257;BME280;56376;53.356;-1.748;2023-04-10T10:09:45;98231.25;;;12.73;100.00
69257;BME280;56376;53.356;-1.748;2023-04-10T10:12:12;98232.94;;;12.74;100.00
69257;BME280;56376;53.356;-1.748;2023-04-10T10:14:47;98234.19;;;12.68;100.00
69257;BME280;56376;53.356;-1.748;2023-04-10T10:17:14;98235.31;;;12.64;100.00
69257;BME280;56376;53.356;-1.748;2023-04-10T10:20:08;98297.00;;;12.55;100.00
69257;BME280;56376;53.356;-1.748;2023-04-10T10:22:36;98292.75;;;12.26;92.59
69257;BME280;56376;53.356;-1.748;2023-04-10T10:25:02;98295.31;;;11.99;94.25
69257;BME280;56376;53.356;-1.748;2023-04-10T10:27:30;98288.56;;;11.66;95.07
69257;BME280;56376;53.356;-1.748;2023-04-10T10:29:59;98289.94;;;11.43;96.63
69257;BME280;56376;53.356;-1.748;2023-04-10T10:32:26;98288.22;;;11.27;96.30
69257;BME280;56376;53.356;-1.748;2023-04-10T10:34:52;98267.72;;;11.05;98.78
69257;BME280;56376;53.356;-1.748;2023-04-10T10:37:21;98258.53;;;10.84;99.25
69257;BME280;56376;53.356;-1.748;2023-04-10T10:40:27;98256.25;;;10.78;100.00
69257;BME280;56376;53.356;-1.748;2023-04-10T10:43:13;98256.63;;;10.72;100.00
69257;BME280;56376;53.356;-1.748;2023-04-10T10:45:49;98244.66;;;10.68;99.92
69257;BME280;56376;53.356;-1.748;2023-04-10T10:48:16;98233.44;;;10.66;100.00
69257;BME280;56376;53.356;-1.748;2023-04-10T10:50:55;98220.31;;;10.67;100.00
69257;BME280;56376;53.356;-1.748;2023-04-10T10:53:32;98232.81;;;10.62;100.00
69257;BME280;56376;53.356;-1.748;2023-04-10T10:55:58;98227.25;;;10.52;100.00
69257;BME280;56376;53.356;-1.748;2023-04-10T10:58:46;98216.00;;;10.36;100.00
69257;BME280;56376;53.356;-1.748;2023-04-10T11:01:13;98207.75;;;10.28;100.00
69257;BME280;56376;53.356;-1.748;2023-04-10T11:03:38;98199.41;;;10.21;100.00
69257;BME280;56376;53.356;-1.748;2023-04-10T11:06:08;98202.94;;;10.20;100.00
69257;BME280;56376;53.356;-1.748;2023-04-10T11:08:39;98164.81;;;10.17;100.00
69257;BME280;56376;53.356;-1.748;2023-04-10T11:11:09;98163.88;;;10.18;100.00
69257;BME280;56376;53.356;-1.748;2023-04-10T11:13:39;98161.28;;;10.18;100.00
69257;BME280;56376;53.356;-1.748;2023-04-10T11:16:07;98166.31;;;10.22;100.00
69257;BME280;56376;53.356;-1.748;2023-04-10T11:21:09;98169.28;;;10.31;100.00
69257;BME280;56376;53.356;-1.748;2023-04-10T11:24:22;98158.66;;;10.34;100.00
69257;BME280;56376;53.356;-1.748;2023-04-10T11:29:01;98138.38;;;10.39;100.00
69257;BME280;56376;53.356;-1.748;2023-04-10T11:31:27;98127.56;;;10.46;100.00
69257;BME280;56376;53.356;-1.748;2023-04-10T11:36:24;98120.22;;;10.52;100.00
69257;BME280;56376;53.356;-1.748;2023-04-10T11:38:57;98118.94;;;10.59;100.00
69257;BME280;56376;53.356;-1.748;2023-04-10T11:41:27;98107.28;;;10.65;100.00
69257;BME280;56376;53.356;-1.748;2023-04-10T11:43:54;98106.25;;;10.68;100.00
69257;BME280;56376;53.356;-1.748;2023-04-10T11:46:20;98093.94;;;10.70;100.00
69257;BME280;56376;53.356;-1.748;2023-04-10T11:48:46;98096.38;;;10.73;100.00
69257;BME280;56376;53.356;-1.748;2023-04-10T11:51:12;98136.22;;;10.76;100.00
69257;BME280;56376;53.356;-1.748;2023-04-10T11:53:39;98184.69;;;10.66;100.00
69257;BME280;56376;53.356;-1.748;2023-04-10T11:56:14;98211.84;;;10.48;100.00
69257;BME280;56376;53.356;-1.748;2023-04-10T11:58:39;98178.72;;;10.18;100.00
69257;BME280;56376;53.356;-1.748;2023-04-10T12:01:05;98136.31;;;9.99;100.00
69257;BME280;56376;53.356;-1.748;2023-04-10T12:06:01;98136.59;;;9.78;100.00
69257;BME280;56376;53.356;-1.748;2023-04-10T12:08:34;98130.44;;;9.79;100.00
69257;BME280;56376;53.356;-1.748;2023-04-10T12:11:00;98122.44;;;9.82;100.00
69257;BME280;56376;53.356;-1.748;2023-04-10T12:13:29;98099.22;;;9.93;100.00
69257;BME280;56376;53.356;-1.748;2023-04-10T12:15:59;98121.06;;;10.07;100.00
69257;BME280;56376;53.356;-1.748;2023-04-10T12:18:26;98115.16;;;10.19;100.00
69257;BME280;56376;53.356;-1.748;2023-04-10T12:20:52;98109.16;;;10.33;100.00
69257;BME280;56376;53.356;-1.748;2023-04-10T12:23:21;98103.91;;;10.49;100.00
69257;BME280;56376;53.356;-1.748;2023-04-10T12:25:47;98098.78;;;10.61;100.00
69257;BME280;56376;53.356;-1.748;2023-04-10T12:28:20;98090.88;;;10.77;100.00
69257;BME280;56376;53.356;-1.748;2023-04-10T12:30:50;98093.25;;;10.96;100.00
69257;BME280;56376;53.356;-1.748;2023-04-10T12:33:23;98079.41;;;11.09;100.00
69257;BME280;56376;53.356;-1.748;2023-04-10T12:35:49;98080.91;;;11.13;100.00
69257;BME280;56376;53.356;-1.748;2023-04-10T12:38:33;98097.81;;;11.07;100.00
69257;BME280;56376;53.356;-1.748;2023-04-10T12:40:59;98124.41;;;10.99;100.00
69257;BME280;56376;53.356;-1.748;2023-04-10T12:43:35;98110.84;;;10.93;100.00
69257;BME280;56376;53.356;-1.748;2023-04-10T12:46:02;98113.75;;;10.88;100.00
69257;BME280;56376;53.356;-1.748;2023-04-10T12:48:28;98109.38;;;10.89;100.00
69257;BME280;56376;53.356;-1.748;2023-04-10T12:50:54;98116.28;;;10.90;100.00
69257;BME280;56376;53.356;-1.748;2023-04-10T12:53:20;98140.31;;;10.80;100.00
69257;BME280;56376;53.356;-1.748;2023-04-10T12:56:03;98128.38;;;10.76;100.00
69257;BME280;56376;53.356;-1.748;2023-04-10T12:58:31;98134.78;;;10.71;100.00
69257;BME280;56376;53.356;-1.748;2023-04-10T13:01:07;98132.94;;;10.73;100.00
69257;BME280;56376;53.356;-1.748;2023-04-10T13:03:34;98144.72;;;10.80;100.00
69257;BME280;56376;53.356;-1.748;2023-04-10T13:06:00;98145.53;;;10.80;100.00
69257;BME280;56376;53.356;-1.748;2023-04-10T13:08:26;98146.81;;;10.73;100.00